Ever Decent — 9V7952 — position and weather

sailwx.info

Track history (hours):
 
Tides and Currents Weather Stations Pressure Air Temp Water Temp Dewpoint Dewpoint Depression Visibility Wind Speed Wind Dir Waves Ship Positions

Ever Decent

Last reported at 2017-Oct-12 08:04 UTC. Time now 2017-Oct-20 12:35 UTC.
Position S 34°02' E 018°13'.
Warning: this ship's position is 8 days out of date.

Length 294 m; draft 11.9 m.

Type: Ship (hazmat cat A). MMSI: 564904000.

Date/timePositionNaut miles runAvg speedWind from/ knotsBaromVisibWave heightAir tempDewpointWater temp
2017-Oct-12 08:04S 34°02' E 018°13'216.4
2017-Oct-12 07:59S 34°00' E 018°13'816.3
2017-Oct-12 07:30S 33°53' E 018°17'713.7
2017-Oct-12 07:00S 33°51' E 018°25'4 7.1
2017-Oct-12 06:29S 33°55' E 018°27'0 0.1
2017-Oct-12 05:59S 33°55' E 018°27'0 0.0
2017-Oct-12 05:29S 33°55' E 018°27'0 0.0
2017-Oct-12 04:59S 33°55' E 018°27'0 0.0
2017-Oct-12 04:29S 33°55' E 018°27'0 0.0
2017-Oct-12 03:50S 33°55' E 018°27'0 0.0
2017-Oct-12 03:29S 33°55' E 018°27'0 0.0
2017-Oct-12 02:59S 33°55' E 018°27'0 0.0
2017-Oct-12 02:29S 33°55' E 018°27'0 0.0
2017-Oct-12 01:56S 33°55' E 018°27'0 0.0
2017-Oct-12 01:26S 33°55' E 018°27'0 0.0
2017-Oct-12 00:59S 33°55' E 018°27'0 0.0
2017-Oct-12 00:26S 33°55' E 018°27'0 0.0
2017-Oct-11 23:59S 33°55' E 018°27'0 0.0
2017-Oct-11 23:29S 33°55' E 018°27'0 0.0
2017-Oct-11 22:56S 33°55' E 018°27'0 0.0
2017-Oct-11 22:29S 33°55' E 018°27'0 0.0
2017-Oct-11 21:59S 33°55' E 018°27'0 0.0
2017-Oct-11 21:29S 33°55' E 018°27'0 0.0
2017-Oct-11 20:59S 33°55' E 018°27'0 0.0
2017-Oct-11 20:29S 33°55' E 018°27'0 0.0
2017-Oct-11 19:59S 33°55' E 018°27'0 0.0
2017-Oct-11 19:29S 33°55' E 018°27'0 0.0
2017-Oct-11 18:59S 33°55' E 018°27'0 0.0
2017-Oct-11 18:29S 33°55' E 018°27'0 0.0
2017-Oct-11 17:59S 33°55' E 018°27'0 0.0
2017-Oct-11 17:29S 33°55' E 018°27'0 0.0
2017-Oct-11 16:59S 33°55' E 018°27'0 0.0
2017-Oct-10 23:59S 33°55' E 018°27'0 0.0
2017-Oct-10 23:30S 33°55' E 018°27'1 1.9
2017-Oct-10 23:00S 33°54' E 018°26'3 5.5
2017-Oct-10 22:30S 33°52' E 018°24'3 5.1
2017-Oct-10 22:00S 33°52' E 018°21'6 7.6
2017-Oct-10 21:17S 33°57' E 018°18'66815.6
2017-Oct-09 02:26S 30°27' E 030°46'817.9
2017-Oct-09 02:00S 30°20' E 030°50'917.2
2017-Oct-09 01:30S 30°12' E 030°55'816.1
2017-Oct-09 01:01S 30°05' E 031°00'815.0
2017-Oct-09 00:31S 29°59' E 031°04'713.2
2017-Oct-09 00:00S 29°52' E 031°06'3 6.0
2017-Oct-08 23:30S 29°53' E 031°02'1 1.3
2017-Oct-08 23:00S 29°53' E 031°02'0 0.0
2017-Oct-08 22:29S 29°53' E 031°02'0 0.0
2017-Oct-08 21:59S 29°53' E 031°02'0 0.0
2017-Oct-08 21:29S 29°53' E 031°02'0 0.0
2017-Oct-08 20:59S 29°53' E 031°02'0 0.0
2017-Oct-08 20:29S 29°53' E 031°02'0 0.0
2017-Oct-08 19:59S 29°53' E 031°02'0 0.0
2017-Oct-08 19:29S 29°53' E 031°02'0 0.0
2017-Oct-08 18:59S 29°53' E 031°02'0 0.0
2017-Oct-08 18:29S 29°53' E 031°02'0 0.0
2017-Oct-08 17:59S 29°53' E 031°02'0 0.0
2017-Oct-08 17:29S 29°53' E 031°02'0 0.0
2017-Oct-08 16:59S 29°53' E 031°02'0 0.0
2017-Oct-08 16:29S 29°53' E 031°02'0 0.0
2017-Oct-08 15:59S 29°53' E 031°02'0 0.0
2017-Oct-08 15:29S 29°53' E 031°02'0 0.0
2017-Oct-08 14:59S 29°53' E 031°02'0 0.0
2017-Oct-08 14:29S 29°53' E 031°02'0 0.0
2017-Oct-08 13:59S 29°53' E 031°02'0 0.0
2017-Oct-08 13:29S 29°53' E 031°02'0 0.0
2017-Oct-08 12:59S 29°53' E 031°02'0 0.0
2017-Oct-08 12:29S 29°53' E 031°02'0 0.0
2017-Oct-08 11:59S 29°53' E 031°02'0 0.0
2017-Oct-08 11:26S 29°53' E 031°02'0 0.0
2017-Oct-08 10:59S 29°53' E 031°02'0 0.0
2017-Oct-08 10:26S 29°53' E 031°02'0 0.0
2017-Oct-08 09:59S 29°53' E 031°02'0 0.0
2017-Oct-08 09:29S 29°53' E 031°02'0 0.0
2017-Oct-08 08:59S 29°53' E 031°02'0 0.0
2017-Oct-08 08:29S 29°53' E 031°02'0 0.0
2017-Oct-08 07:59S 29°53' E 031°02'0 0.0
2017-Oct-08 07:29S 29°53' E 031°02'0 0.0
2017-Oct-08 06:59S 29°53' E 031°02'0 0.0
2017-Oct-08 06:30S 29°53' E 031°02'0 0.0
2017-Oct-08 05:57S 29°53' E 031°02'0 0.0
2017-Oct-08 05:30S 29°53' E 031°02'0 0.0
2017-Oct-08 05:00S 29°53' E 031°02'0 0.0
2017-Oct-08 04:30S 29°53' E 031°02'0 0.0
2017-Oct-08 03:57S 29°53' E 031°02'0 0.0
2017-Oct-08 03:27S 29°53' E 031°02'0 0.0
2017-Oct-08 03:00S 29°53' E 031°02'0 0.0
2017-Oct-08 02:27S 29°53' E 031°02'0 0.0
2017-Oct-08 02:00S 29°53' E 031°02'0 0.0
2017-Oct-08 01:30S 29°53' E 031°02'0 0.0
2017-Oct-08 01:00S 29°53' E 031°02'0 0.0
2017-Oct-08 00:30S 29°53' E 031°02'0 0.0
2017-Oct-07 23:57S 29°53' E 031°02'0 0.0
2017-Oct-07 23:30S 29°53' E 031°02'0 0.0
2017-Oct-07 23:00S 29°53' E 031°02'0 0.0
2017-Oct-07 22:30S 29°53' E 031°02'0 0.0
2017-Oct-07 22:00S 29°53' E 031°02'0 0.0
2017-Oct-07 21:30S 29°53' E 031°02'0 0.2
2017-Oct-07 21:00S 29°53' E 031°02'0 0.2
2017-Oct-07 20:30S 29°53' E 031°02'0 0.2
2017-Oct-07 20:00S 29°53' E 031°02'0 0.2
2017-Oct-07 19:30S 29°53' E 031°02'0 0.0
2017-Oct-07 19:00S 29°53' E 031°02'0 0.0
2017-Oct-07 18:30S 29°53' E 031°02'0 0.0
2017-Oct-07 18:00S 29°53' E 031°02'0 0.0
2017-Oct-07 17:30S 29°53' E 031°02'0 0.0
2017-Oct-07 17:00S 29°53' E 031°02'0 0.0
2017-Oct-07 16:30S 29°53' E 031°02'0 0.0
2017-Oct-07 16:00S 29°53' E 031°02'0 0.0
2017-Oct-07 15:27S 29°53' E 031°02'0 0.0
2017-Oct-07 15:00S 29°53' E 031°02'0 0.0
2017-Oct-07 14:30S 29°53' E 031°02'0 0.0
2017-Oct-07 14:00S 29°53' E 031°02'0 0.2
2017-Oct-07 13:27S 29°53' E 031°02'0 0.2
2017-Oct-07 13:00S 29°53' E 031°02'0 0.0
2017-Oct-07 12:30S 29°53' E 031°02'0 0.0
2017-Oct-07 12:00S 29°53' E 031°02'0 0.0
2017-Oct-07 11:30S 29°53' E 031°02'0 0.0
2017-Oct-07 11:00S 29°53' E 031°02'0 0.0
2017-Oct-07 10:30S 29°53' E 031°02'0 0.0
2017-Oct-07 09:57S 29°53' E 031°02'0 0.0
2017-Oct-07 09:29S 29°53' E 031°02'0 0.0
2017-Oct-07 08:59S 29°53' E 031°02'0 0.1
2017-Oct-07 08:29S 29°53' E 031°02'0 0.1
2017-Oct-07 07:59S 29°53' E 031°02'0 0.0
2017-Oct-07 07:29S 29°53' E 031°02'0 0.0
2017-Oct-07 06:59S 29°53' E 031°02'0 0.0
2017-Oct-07 06:29S 29°53' E 031°02'0 0.0
2017-Oct-07 05:59S 29°53' E 031°02'0 0.0
2017-Oct-07 05:29S 29°53' E 031°02'0 0.0
2017-Oct-07 04:59S 29°53' E 031°02'0 0.0
2017-Oct-07 04:29S 29°53' E 031°02'0 0.1
2017-Oct-07 03:59S 29°53' E 031°02'0 0.1
2017-Oct-07 03:30S 29°53' E 031°02'0 0.0
2017-Oct-07 03:00S 29°53' E 031°02'0 0.0
2017-Oct-07 02:27S 29°53' E 031°02'0 0.0
2017-Oct-07 02:00S 29°53' E 031°02'0 0.0
2017-Oct-07 01:30S 29°53' E 031°02'0 0.0
2017-Oct-07 01:00S 29°53' E 031°02'0 0.0
2017-Oct-07 00:30S 29°53' E 031°02'0 0.1
2017-Oct-06 23:55S 29°53' E 031°02'0 0.0
2017-Oct-06 23:28S 29°53' E 031°02'0 0.0
2017-Oct-06 22:55S 29°53' E 031°02'0 0.0
2017-Oct-06 22:28S 29°53' E 031°02'0 0.0
2017-Oct-06 21:58S 29°53' E 031°02'0 0.0
2017-Oct-06 21:28S 29°53' E 031°02'0 0.0
2017-Oct-06 20:58S 29°53' E 031°02'0 0.0
2017-Oct-06 20:28S 29°53' E 031°02'0 0.0
2017-Oct-06 19:58S 29°53' E 031°02'0 0.0
2017-Oct-06 19:28S 29°53' E 031°02'0 0.0
2017-Oct-06 18:58S 29°53' E 031°02'0 0.0
2017-Oct-06 18:28S 29°53' E 031°02'0 0.0
2017-Oct-06 17:58S 29°53' E 031°02'0 0.0
2017-Oct-06 17:28S 29°53' E 031°02'0 0.0
2017-Oct-06 16:58S 29°53' E 031°02'0 0.0
2017-Oct-06 16:28S 29°53' E 031°02'0 0.0
2017-Oct-06 15:58S 29°53' E 031°02'0 0.0
2017-Oct-06 15:28S 29°53' E 031°02'0 0.0
2017-Oct-06 14:55S 29°53' E 031°02'0 0.0
2017-Oct-06 14:28S 29°53' E 031°02'0 0.0
2017-Oct-06 13:58S 29°53' E 031°02'0 0.2
2017-Oct-06 13:25S 29°53' E 031°02'0 0.2
2017-Oct-06 12:58S 29°53' E 031°02'0 0.0
2017-Oct-06 12:28S 29°53' E 031°02'0 0.0
2017-Oct-06 11:58S 29°53' E 031°02'0 0.0
2017-Oct-06 11:28S 29°53' E 031°02'0 0.0
2017-Oct-06 10:58S 29°53' E 031°02'0 0.0
2017-Oct-06 10:28S 29°53' E 031°02'0 0.0
2017-Oct-06 09:55S 29°53' E 031°02'0 0.0
2017-Oct-06 09:28S 29°53' E 031°02'0 0.0
2017-Oct-06 08:58S 29°53' E 031°02'0 0.0
2017-Oct-06 08:28S 29°53' E 031°02'0 0.0
2017-Oct-06 07:58S 29°53' E 031°02'0 0.0
2017-Oct-06 07:28S 29°53' E 031°02'0 0.0
2017-Oct-06 06:58S 29°53' E 031°02'0 0.0
2017-Oct-06 06:28S 29°53' E 031°02'0 0.0
2017-Oct-06 05:58S 29°53' E 031°02'0 0.0
2017-Oct-06 05:25S 29°53' E 031°02'0 0.0
2017-Oct-06 04:58S 29°53' E 031°02'0 0.0
2017-Oct-06 04:28S 29°53' E 031°02'0 0.0
2017-Oct-06 03:58S 29°53' E 031°02'0 0.0
2017-Oct-06 03:28S 29°53' E 031°02'0 0.0
2017-Oct-06 02:58S 29°53' E 031°02'0 0.0
2017-Oct-06 02:28S 29°53' E 031°02'0 0.0
2017-Oct-06 01:58S 29°53' E 031°02'0 0.0
2017-Oct-06 01:28S 29°53' E 031°02'0 0.0
2017-Oct-06 00:58S 29°53' E 031°02'0 0.0
2017-Oct-06 00:25S 29°53' E 031°02'0 0.0
2017-Oct-05 23:58S 29°53' E 031°02'0 0.0
2017-Oct-05 23:25S 29°53' E 031°02'0 0.0
2017-Oct-05 22:58S 29°53' E 031°02'0 0.2
2017-Oct-05 22:28S 29°53' E 031°02'0 0.2
2017-Oct-05 21:58S 29°53' E 031°02'0 0.0
2017-Oct-05 21:28S 29°53' E 031°02'0 0.0
2017-Oct-05 20:58S 29°53' E 031°02'0 0.0
2017-Oct-05 20:28S 29°53' E 031°02'0 0.0
2017-Oct-05 19:59S 29°53' E 031°02'0 0.0
2017-Oct-05 19:28S 29°53' E 031°02'0 0.0
2017-Oct-05 18:58S 29°53' E 031°02'0 0.0
2017-Oct-05 15:11S 29°53' E 031°02'0 0.0
2017-Oct-05 14:59S 29°53' E 031°02'0 0.0
2017-Oct-05 13:47S 29°53' E 031°02'0 0.0
2017-Oct-05 13:29S 29°53' E 031°02'0 0.0
2017-Oct-05 12:59S 29°53' E 031°02'0 0.0
2017-Oct-05 12:29S 29°53' E 031°02'0 0.0
2017-Oct-05 11:59S 29°53' E 031°02'0 0.0
2017-Oct-05 11:29S 29°53' E 031°02'0 0.0
2017-Oct-05 10:59S 29°53' E 031°02'0 0.0
2017-Oct-05 10:29S 29°53' E 031°02'0 0.0
2017-Oct-05 09:59S 29°53' E 031°02'0 0.0
2017-Oct-05 09:29S 29°53' E 031°02'0 0.0
2017-Oct-05 08:59S 29°53' E 031°02'0 0.0
2017-Oct-05 08:29S 29°53' E 031°02'0 0.0
2017-Oct-05 07:59S 29°53' E 031°02'0 0.0
2017-Oct-05 07:29S 29°53' E 031°02'0 0.0
2017-Oct-05 06:59S 29°53' E 031°02'0 0.1
2017-Oct-05 06:29S 29°53' E 031°02'0 0.1
2017-Oct-05 05:59S 29°53' E 031°02'0 0.0
2017-Oct-05 05:29S 29°53' E 031°02'0 0.0
2017-Oct-05 04:59S 29°53' E 031°02'0 0.0
2017-Oct-05 04:29S 29°53' E 031°02'0 0.0
2017-Oct-05 03:59S 29°53' E 031°02'0 0.0
2017-Oct-05 03:29S 29°53' E 031°02'0 0.0
2017-Oct-05 02:59S 29°53' E 031°02'0 0.0
2017-Oct-05 02:29S 29°53' E 031°02'0 0.0
2017-Oct-05 01:59S 29°53' E 031°02'0 0.0
2017-Oct-05 01:29S 29°53' E 031°02'0 0.0
2017-Oct-05 00:59S 29°53' E 031°02'0 0.0
2017-Oct-05 00:29S 29°53' E 031°02'0 0.0
2017-Oct-05 00:00S 29°53' E 031°02'0 0.0
2017-Oct-04 23:30S 29°53' E 031°02'0 0.0
2017-Oct-04 23:00S 29°53' E 031°02'0 0.0
2017-Oct-04 22:30S 29°53' E 031°02'0 0.0
2017-Oct-04 22:00S 29°53' E 031°02'0 0.0
2017-Oct-04 21:30S 29°53' E 031°02'0 0.0
2017-Oct-04 21:00S 29°53' E 031°02'0 0.0
2017-Oct-04 20:27S 29°53' E 031°02'0 0.0
2017-Oct-04 20:00S 29°53' E 031°02'0 0.0
2017-Oct-04 19:30S 29°53' E 031°02'0 0.0
2017-Oct-04 19:00S 29°53' E 031°02'0 0.0
2017-Oct-04 18:30S 29°53' E 031°02'0 0.0
2017-Oct-04 18:00S 29°53' E 031°02'0 0.0
2017-Oct-04 17:30S 29°53' E 031°02'0 0.0
2017-Oct-04 17:00S 29°53' E 031°02'0 0.0
2017-Oct-04 16:30S 29°53' E 031°02'0 0.0
2017-Oct-04 16:00S 29°53' E 031°02'0 0.0
2017-Oct-04 15:30S 29°53' E 031°02'0 0.0
2017-Oct-04 15:00S 29°53' E 031°02'0 0.0
2017-Oct-04 14:30S 29°53' E 031°02'0 0.0
2017-Oct-04 14:00S 29°53' E 031°02'0 0.0
2017-Oct-04 13:30S 29°53' E 031°02'0 0.0
2017-Oct-04 13:00S 29°53' E 031°02'0 0.0
2017-Oct-04 12:30S 29°53' E 031°02'0 0.0
2017-Oct-04 12:00S 29°53' E 031°02'0 0.0
2017-Oct-04 11:27S 29°53' E 031°02'0 0.0
2017-Oct-04 11:00S 29°53' E 031°02'0 0.0
2017-Oct-04 10:30S 29°53' E 031°02'0 0.0
2017-Oct-04 10:00S 29°53' E 031°02'0 0.0
2017-Oct-04 09:30S 29°53' E 031°02'0 0.0
2017-Oct-04 08:57S 29°53' E 031°02'0 0.0
2017-Oct-04 08:27S 29°53' E 031°02'0 0.0
2017-Oct-04 07:57S 29°53' E 031°02'0 0.0
2017-Oct-04 07:30S 29°53' E 031°02'0 0.0
2017-Oct-04 07:00S 29°53' E 031°02'0 0.0
2017-Oct-04 06:30S 29°53' E 031°02'0 0.0
2017-Oct-04 06:00S 29°53' E 031°02'0 0.0
2017-Oct-04 05:30S 29°53' E 031°02'0 0.0
2017-Oct-04 05:00S 29°53' E 031°02'0 0.0
2017-Oct-04 04:30S 29°53' E 031°02'0 0.0
2017-Oct-04 04:00S 29°53' E 031°02'0 0.0
2017-Oct-04 03:30S 29°53' E 031°02'0 0.0
2017-Oct-04 03:00S 29°53' E 031°02'0 0.0
2017-Oct-04 02:30S 29°53' E 031°02'0 0.0
2017-Oct-04 01:58S 29°53' E 031°02'0 0.0
2017-Oct-04 01:28S 29°53' E 031°02'0 0.0
2017-Oct-04 00:55S 29°53' E 031°02'0 0.0
2017-Oct-04 00:28S 29°53' E 031°02'0 0.0
2017-Oct-03 23:58S 29°53' E 031°02'0 0.0
2017-Oct-03 23:28S 29°53' E 031°02'0 0.0
2017-Oct-03 22:58S 29°53' E 031°02'0 0.0
2017-Oct-03 22:28S 29°53' E 031°02'0 0.0
2017-Oct-03 21:58S 29°53' E 031°02'0 0.0
2017-Oct-03 21:28S 29°53' E 031°02'0 0.0
2017-Oct-03 20:58S 29°53' E 031°02'0 0.0
2017-Oct-03 20:28S 29°53' E 031°02'0 0.0
2017-Oct-03 19:58S 29°53' E 031°02'0 0.0
2017-Oct-03 19:28S 29°53' E 031°02'0 0.0
2017-Oct-03 18:58S 29°53' E 031°02'0 0.0
2017-Oct-03 18:28S 29°53' E 031°02'0 0.0
2017-Oct-03 17:58S 29°53' E 031°02'0 0.0
2017-Oct-03 17:28S 29°53' E 031°02'0 0.0
2017-Oct-03 16:58S 29°53' E 031°02'0 0.0
2017-Oct-03 16:28S 29°53' E 031°02'0 0.0
2017-Oct-03 15:58S 29°53' E 031°02'0 0.0
2017-Oct-03 15:28S 29°53' E 031°02'0 0.0
2017-Oct-03 14:58S 29°53' E 031°02'0 0.0
2017-Oct-03 13:58S 29°53' E 031°02'0 1.1
2017-Oct-03 13:30S 29°52' E 031°02'4 7.7
2017-Oct-03 13:00S 29°50' E 031°05'4 7.1
2017-Oct-03 12:30S 29°49' E 031°09'5 9.9
2017-Oct-03 12:00S 29°47' E 031°14'815.2
2017-Oct-03 11:30S 29°40' E 031°17'6 8.2
2017-Oct-03 10:44S 29°33' E 031°17'0 0.3
2017-Oct-03 10:26S 29°33' E 031°17'0 0.0
2017-Oct-03 10:00S 29°33' E 031°17'0 0.1
2017-Oct-03 09:28S 29°33' E 031°17'0 0.1
2017-Oct-03 08:58S 29°33' E 031°17'0 0.0
2017-Oct-03 08:28S 29°33' E 031°17'0 0.0
2017-Oct-03 07:58S 29°33' E 031°17'0 0.1
2017-Oct-03 07:28S 29°33' E 031°17'0 0.0
2017-Oct-03 06:58S 29°33' E 031°17'0 0.0
2017-Oct-03 06:28S 29°33' E 031°17'0 0.0
2017-Oct-03 05:58S 29°33' E 031°17'0 0.0
2017-Oct-03 05:28S 29°33' E 031°17'0 0.0
2017-Oct-03 04:58S 29°33' E 031°17'0 0.0
2017-Oct-03 04:28S 29°33' E 031°17'0 0.0
2017-Oct-03 03:58S 29°33' E 031°17'0 0.0
2017-Oct-03 03:28S 29°33' E 031°17'0 0.0
2017-Oct-03 02:58S 29°33' E 031°17'0 0.0
2017-Oct-03 02:19S 29°33' E 031°17'0 0.0
2017-Oct-03 01:58S 29°33' E 031°17'0 0.0
2017-Oct-03 01:28S 29°33' E 031°17'0 0.0
2017-Oct-03 00:58S 29°34' E 031°17'0 0.0
2017-Oct-03 00:28S 29°33' E 031°17'0 0.0
2017-Oct-02 23:58S 29°33' E 031°17'0 0.0
2017-Oct-02 23:28S 29°33' E 031°17'0 0.0
2017-Oct-02 22:58S 29°33' E 031°17'0 0.0
2017-Oct-02 22:28S 29°33' E 031°17'0 0.0
2017-Oct-02 21:58S 29°33' E 031°17'0 0.0
2017-Oct-02 21:28S 29°33' E 031°17'0 0.1
2017-Oct-02 20:58S 29°33' E 031°17'0 0.1
2017-Oct-02 20:28S 29°33' E 031°17'0 0.0
2017-Oct-02 19:58S 29°33' E 031°17'0 0.0
2017-Oct-02 19:28S 29°33' E 031°17'0 0.0
2017-Oct-02 18:58S 29°33' E 031°17'0 0.0
2017-Oct-02 18:28S 29°33' E 031°17'0 0.0
2017-Oct-02 17:58S 29°33' E 031°17'0 0.0
2017-Oct-02 17:28S 29°33' E 031°17'0 0.0
2017-Oct-02 16:58S 29°33' E 031°17'0 0.1
2017-Oct-02 16:28S 29°33' E 031°17'0 0.0
2017-Oct-02 15:58S 29°33' E 031°17'0 0.0
2017-Oct-02 15:28S 29°33' E 031°17'0 0.1
2017-Oct-02 14:58S 29°33' E 031°17'0 0.0
2017-Oct-02 14:25S 29°33' E 031°17'0 0.0
2017-Oct-02 13:55S 29°33' E 031°17'0 0.0
2017-Oct-02 13:25S 29°33' E 031°17'0 0.0
2017-Oct-02 12:58S 29°33' E 031°17'0 0.0
2017-Oct-02 12:28S 29°33' E 031°17'0 0.0
2017-Oct-02 11:58S 29°33' E 031°17'0 0.0
2017-Oct-02 11:30S 29°33' E 031°17'0 0.1
2017-Oct-02 11:00S 29°33' E 031°17'0 0.0
2017-Oct-02 10:30S 29°33' E 031°17'0 0.1
2017-Oct-02 10:00S 29°33' E 031°17'0 0.1
2017-Oct-02 09:30S 29°33' E 031°17'0 0.0
2017-Oct-02 09:00S 29°33' E 031°17'0 0.1
2017-Oct-02 08:30S 29°33' E 031°17'  
Track history (hours):
 
Tides and Currents Weather Stations Pressure Air Temp Water Temp Dewpoint Dewpoint Depression Visibility Wind Speed Wind Dir Waves Ship Positions

Ever Decent

Last reported at 2017-Oct-12 08:04 UTC. Time now 2017-Oct-20 12:35 UTC.
Position S 34°02' E 018°13'.
Warning: this ship's position is 8 days out of date.

Length 294 m; draft 11.9 m.

Type: Ship (hazmat cat A). MMSI: 564904000.

Date/timePositionNaut miles runAvg speedWind from/ knotsBaromVisibWave heightAir tempDewpointWater temp
2017-Oct-12 08:04S 34°02' E 018°13'216.4
2017-Oct-12 07:59S 34°00' E 018°13'816.3
2017-Oct-12 07:30S 33°53' E 018°17'713.7
2017-Oct-12 07:00S 33°51' E 018°25'4 7.1
2017-Oct-12 06:29S 33°55' E 018°27'0 0.1
2017-Oct-12 05:59S 33°55' E 018°27'0 0.0
2017-Oct-12 05:29S 33°55' E 018°27'0 0.0
2017-Oct-12 04:59S 33°55' E 018°27'0 0.0
2017-Oct-12 04:29S 33°55' E 018°27'0 0.0
2017-Oct-12 03:50S 33°55' E 018°27'0 0.0
2017-Oct-12 03:29S 33°55' E 018°27'0 0.0
2017-Oct-12 02:59S 33°55' E 018°27'0 0.0
2017-Oct-12 02:29S 33°55' E 018°27'0 0.0
2017-Oct-12 01:56S 33°55' E 018°27'0 0.0
2017-Oct-12 01:26S 33°55' E 018°27'0 0.0
2017-Oct-12 00:59S 33°55' E 018°27'0 0.0
2017-Oct-12 00:26S 33°55' E 018°27'0 0.0
2017-Oct-11 23:59S 33°55' E 018°27'0 0.0
2017-Oct-11 23:29S 33°55' E 018°27'0 0.0
2017-Oct-11 22:56S 33°55' E 018°27'0 0.0
2017-Oct-11 22:29S 33°55' E 018°27'0 0.0
2017-Oct-11 21:59S 33°55' E 018°27'0 0.0
2017-Oct-11 21:29S 33°55' E 018°27'0 0.0
2017-Oct-11 20:59S 33°55' E 018°27'0 0.0
2017-Oct-11 20:29S 33°55' E 018°27'0 0.0
2017-Oct-11 19:59S 33°55' E 018°27'0 0.0
2017-Oct-11 19:29S 33°55' E 018°27'0 0.0
2017-Oct-11 18:59S 33°55' E 018°27'0 0.0
2017-Oct-11 18:29S 33°55' E 018°27'0 0.0
2017-Oct-11 17:59S 33°55' E 018°27'0 0.0
2017-Oct-11 17:29S 33°55' E 018°27'0 0.0
2017-Oct-11 16:59S 33°55' E 018°27'0 0.0
2017-Oct-10 23:59S 33°55' E 018°27'0 0.0
2017-Oct-10 23:30S 33°55' E 018°27'1 1.9
2017-Oct-10 23:00S 33°54' E 018°26'3 5.5
2017-Oct-10 22:30S 33°52' E 018°24'3 5.1
2017-Oct-10 22:00S 33°52' E 018°21'6 7.6
2017-Oct-10 21:17S 33°57' E 018°18'66815.6
2017-Oct-09 02:26S 30°27' E 030°46'817.9
2017-Oct-09 02:00S 30°20' E 030°50'917.2
2017-Oct-09 01:30S 30°12' E 030°55'816.1
2017-Oct-09 01:01S 30°05' E 031°00'815.0
2017-Oct-09 00:31S 29°59' E 031°04'713.2
2017-Oct-09 00:00S 29°52' E 031°06'3 6.0
2017-Oct-08 23:30S 29°53' E 031°02'1 1.3
2017-Oct-08 23:00S 29°53' E 031°02'0 0.0
2017-Oct-08 22:29S 29°53' E 031°02'0 0.0
2017-Oct-08 21:59S 29°53' E 031°02'0 0.0
2017-Oct-08 21:29S 29°53' E 031°02'0 0.0
2017-Oct-08 20:59S 29°53' E 031°02'0 0.0
2017-Oct-08 20:29S 29°53' E 031°02'0 0.0
2017-Oct-08 19:59S 29°53' E 031°02'0 0.0
2017-Oct-08 19:29S 29°53' E 031°02'0 0.0
2017-Oct-08 18:59S 29°53' E 031°02'0 0.0
2017-Oct-08 18:29S 29°53' E 031°02'0 0.0
2017-Oct-08 17:59S 29°53' E 031°02'0 0.0
2017-Oct-08 17:29S 29°53' E 031°02'0 0.0
2017-Oct-08 16:59S 29°53' E 031°02'0 0.0
2017-Oct-08 16:29S 29°53' E 031°02'0 0.0
2017-Oct-08 15:59S 29°53' E 031°02'0 0.0
2017-Oct-08 15:29S 29°53' E 031°02'0 0.0
2017-Oct-08 14:59S 29°53' E 031°02'0 0.0
2017-Oct-08 14:29S 29°53' E 031°02'0 0.0
2017-Oct-08 13:59S 29°53' E 031°02'0 0.0
2017-Oct-08 13:29S 29°53' E 031°02'0 0.0
2017-Oct-08 12:59S 29°53' E 031°02'0 0.0
2017-Oct-08 12:29S 29°53' E 031°02'0 0.0
2017-Oct-08 11:59S 29°53' E 031°02'0 0.0
2017-Oct-08 11:26S 29°53' E 031°02'0 0.0
2017-Oct-08 10:59S 29°53' E 031°02'0 0.0
2017-Oct-08 10:26S 29°53' E 031°02'0 0.0
2017-Oct-08 09:59S 29°53' E 031°02'0 0.0
2017-Oct-08 09:29S 29°53' E 031°02'0 0.0
2017-Oct-08 08:59S 29°53' E 031°02'0 0.0
2017-Oct-08 08:29S 29°53' E 031°02'0 0.0
2017-Oct-08 07:59S 29°53' E 031°02'0 0.0
2017-Oct-08 07:29S 29°53' E 031°02'0 0.0
2017-Oct-08 06:59S 29°53' E 031°02'0 0.0
2017-Oct-08 06:30S 29°53' E 031°02'0 0.0
2017-Oct-08 05:57S 29°53' E 031°02'0 0.0
2017-Oct-08 05:30S 29°53' E 031°02'0 0.0
2017-Oct-08 05:00S 29°53' E 031°02'0 0.0
2017-Oct-08 04:30S 29°53' E 031°02'0 0.0
2017-Oct-08 03:57S 29°53' E 031°02'0 0.0
2017-Oct-08 03:27S 29°53' E 031°02'0 0.0
2017-Oct-08 03:00S 29°53' E 031°02'0 0.0
2017-Oct-08 02:27S 29°53' E 031°02'0 0.0
2017-Oct-08 02:00S 29°53' E 031°02'0 0.0
2017-Oct-08 01:30S 29°53' E 031°02'0 0.0
2017-Oct-08 01:00S 29°53' E 031°02'0 0.0
2017-Oct-08 00:30S 29°53' E 031°02'0 0.0
2017-Oct-07 23:57S 29°53' E 031°02'0 0.0
2017-Oct-07 23:30S 29°53' E 031°02'0 0.0
2017-Oct-07 23:00S 29°53' E 031°02'0 0.0
2017-Oct-07 22:30S 29°53' E 031°02'0 0.0
2017-Oct-07 22:00S 29°53' E 031°02'0 0.0
2017-Oct-07 21:30S 29°53' E 031°02'0 0.2
2017-Oct-07 21:00S 29°53' E 031°02'0 0.2
2017-Oct-07 20:30S 29°53' E 031°02'0 0.2
2017-Oct-07 20:00S 29°53' E 031°02'0 0.2
2017-Oct-07 19:30S 29°53' E 031°02'0 0.0
2017-Oct-07 19:00S 29°53' E 031°02'0 0.0
2017-Oct-07 18:30S 29°53' E 031°02'0 0.0
2017-Oct-07 18:00S 29°53' E 031°02'0 0.0
2017-Oct-07 17:30S 29°53' E 031°02'0 0.0
2017-Oct-07 17:00S 29°53' E 031°02'0 0.0
2017-Oct-07 16:30S 29°53' E 031°02'0 0.0
2017-Oct-07 16:00S 29°53' E 031°02'0 0.0
2017-Oct-07 15:27S 29°53' E 031°02'0 0.0
2017-Oct-07 15:00S 29°53' E 031°02'0 0.0
2017-Oct-07 14:30S 29°53' E 031°02'0 0.0
2017-Oct-07 14:00S 29°53' E 031°02'0 0.2
2017-Oct-07 13:27S 29°53' E 031°02'0 0.2
2017-Oct-07 13:00S 29°53' E 031°02'0 0.0
2017-Oct-07 12:30S 29°53' E 031°02'0 0.0
2017-Oct-07 12:00S 29°53' E 031°02'0 0.0
2017-Oct-07 11:30S 29°53' E 031°02'0 0.0
2017-Oct-07 11:00S 29°53' E 031°02'0 0.0
2017-Oct-07 10:30S 29°53' E 031°02'0 0.0
2017-Oct-07 09:57S 29°53' E 031°02'0 0.0
2017-Oct-07 09:29S 29°53' E 031°02'0 0.0
2017-Oct-07 08:59S 29°53' E 031°02'0 0.1
2017-Oct-07 08:29S 29°53' E 031°02'0 0.1
2017-Oct-07 07:59S 29°53' E 031°02'0 0.0
2017-Oct-07 07:29S 29°53' E 031°02'0 0.0
2017-Oct-07 06:59S 29°53' E 031°02'0 0.0
2017-Oct-07 06:29S 29°53' E 031°02'0 0.0
2017-Oct-07 05:59S 29°53' E 031°02'0 0.0
2017-Oct-07 05:29S 29°53' E 031°02'0 0.0
2017-Oct-07 04:59S 29°53' E 031°02'0 0.0
2017-Oct-07 04:29S 29°53' E 031°02'0 0.1
2017-Oct-07 03:59S 29°53' E 031°02'0 0.1
2017-Oct-07 03:30S 29°53' E 031°02'0 0.0
2017-Oct-07 03:00S 29°53' E 031°02'0 0.0
2017-Oct-07 02:27S 29°53' E 031°02'0 0.0
2017-Oct-07 02:00S 29°53' E 031°02'0 0.0
2017-Oct-07 01:30S 29°53' E 031°02'0 0.0
2017-Oct-07 01:00S 29°53' E 031°02'0 0.0
2017-Oct-07 00:30S 29°53' E 031°02'0 0.1
2017-Oct-06 23:55S 29°53' E 031°02'0 0.0
2017-Oct-06 23:28S 29°53' E 031°02'0 0.0
2017-Oct-06 22:55S 29°53' E 031°02'0 0.0
2017-Oct-06 22:28S 29°53' E 031°02'0 0.0
2017-Oct-06 21:58S 29°53' E 031°02'0 0.0
2017-Oct-06 21:28S 29°53' E 031°02'0 0.0
2017-Oct-06 20:58S 29°53' E 031°02'0 0.0
2017-Oct-06 20:28S 29°53' E 031°02'0 0.0
2017-Oct-06 19:58S 29°53' E 031°02'0 0.0
2017-Oct-06 19:28S 29°53' E 031°02'0 0.0
2017-Oct-06 18:58S 29°53' E 031°02'0 0.0
2017-Oct-06 18:28S 29°53' E 031°02'0 0.0
2017-Oct-06 17:58S 29°53' E 031°02'0 0.0
2017-Oct-06 17:28S 29°53' E 031°02'0 0.0
2017-Oct-06 16:58S 29°53' E 031°02'0 0.0
2017-Oct-06 16:28S 29°53' E 031°02'0 0.0
2017-Oct-06 15:58S 29°53' E 031°02'0 0.0
2017-Oct-06 15:28S 29°53' E 031°02'0 0.0
2017-Oct-06 14:55S 29°53' E 031°02'0 0.0
2017-Oct-06 14:28S 29°53' E 031°02'0 0.0
2017-Oct-06 13:58S 29°53' E 031°02'0 0.2
2017-Oct-06 13:25S 29°53' E 031°02'0 0.2
2017-Oct-06 12:58S 29°53' E 031°02'0 0.0
2017-Oct-06 12:28S 29°53' E 031°02'0 0.0
2017-Oct-06 11:58S 29°53' E 031°02'0 0.0
2017-Oct-06 11:28S 29°53' E 031°02'0 0.0
2017-Oct-06 10:58S 29°53' E 031°02'0 0.0
2017-Oct-06 10:28S 29°53' E 031°02'0 0.0
2017-Oct-06 09:55S 29°53' E 031°02'0 0.0
2017-Oct-06 09:28S 29°53' E 031°02'0 0.0
2017-Oct-06 08:58S 29°53' E 031°02'0 0.0
2017-Oct-06 08:28S 29°53' E 031°02'0 0.0
2017-Oct-06 07:58S 29°53' E 031°02'0 0.0
2017-Oct-06 07:28S 29°53' E 031°02'0 0.0
2017-Oct-06 06:58S 29°53' E 031°02'0 0.0
2017-Oct-06 06:28S 29°53' E 031°02'0 0.0
2017-Oct-06 05:58S 29°53' E 031°02'0 0.0
2017-Oct-06 05:25S 29°53' E 031°02'0 0.0
2017-Oct-06 04:58S 29°53' E 031°02'0 0.0
2017-Oct-06 04:28S 29°53' E 031°02'0 0.0
2017-Oct-06 03:58S 29°53' E 031°02'0 0.0
2017-Oct-06 03:28S 29°53' E 031°02'0 0.0
2017-Oct-06 02:58S 29°53' E 031°02'0 0.0
2017-Oct-06 02:28S 29°53' E 031°02'0 0.0
2017-Oct-06 01:58S 29°53' E 031°02'0 0.0
2017-Oct-06 01:28S 29°53' E 031°02'0 0.0
2017-Oct-06 00:58S 29°53' E 031°02'0 0.0
2017-Oct-06 00:25S 29°53' E 031°02'0 0.0
2017-Oct-05 23:58S 29°53' E 031°02'0 0.0
2017-Oct-05 23:25S 29°53' E 031°02'0 0.0
2017-Oct-05 22:58S 29°53' E 031°02'0 0.2
2017-Oct-05 22:28S 29°53' E 031°02'0 0.2
2017-Oct-05 21:58S 29°53' E 031°02'0 0.0
2017-Oct-05 21:28S 29°53' E 031°02'0 0.0
2017-Oct-05 20:58S 29°53' E 031°02'0 0.0
2017-Oct-05 20:28S 29°53' E 031°02'0 0.0
2017-Oct-05 19:59S 29°53' E 031°02'0 0.0
2017-Oct-05 19:28S 29°53' E 031°02'0 0.0
2017-Oct-05 18:58S 29°53' E 031°02'0 0.0
2017-Oct-05 15:11S 29°53' E 031°02'0 0.0
2017-Oct-05 14:59S 29°53' E 031°02'0 0.0
2017-Oct-05 13:47S 29°53' E 031°02'0 0.0
2017-Oct-05 13:29S 29°53' E 031°02'0 0.0
2017-Oct-05 12:59S 29°53' E 031°02'0 0.0
2017-Oct-05 12:29S 29°53' E 031°02'0 0.0
2017-Oct-05 11:59S 29°53' E 031°02'0 0.0
2017-Oct-05 11:29S 29°53' E 031°02'0 0.0
2017-Oct-05 10:59S 29°53' E 031°02'0 0.0
2017-Oct-05 10:29S 29°53' E 031°02'0 0.0
2017-Oct-05 09:59S 29°53' E 031°02'0 0.0
2017-Oct-05 09:29S 29°53' E 031°02'0 0.0
2017-Oct-05 08:59S 29°53' E 031°02'0 0.0
2017-Oct-05 08:29S 29°53' E 031°02'0 0.0
2017-Oct-05 07:59S 29°53' E 031°02'0 0.0
2017-Oct-05 07:29S 29°53' E 031°02'0 0.0
2017-Oct-05 06:59S 29°53' E 031°02'0 0.1
2017-Oct-05 06:29S 29°53' E 031°02'0 0.1
2017-Oct-05 05:59S 29°53' E 031°02'0 0.0
2017-Oct-05 05:29S 29°53' E 031°02'0 0.0
2017-Oct-05 04:59S 29°53' E 031°02'0 0.0
2017-Oct-05 04:29S 29°53' E 031°02'0 0.0
2017-Oct-05 03:59S 29°53' E 031°02'0 0.0
2017-Oct-05 03:29S 29°53' E 031°02'0 0.0
2017-Oct-05 02:59S 29°53' E 031°02'0 0.0
2017-Oct-05 02:29S 29°53' E 031°02'0 0.0
2017-Oct-05 01:59S 29°53' E 031°02'0 0.0
2017-Oct-05 01:29S 29°53' E 031°02'0 0.0
2017-Oct-05 00:59S 29°53' E 031°02'0 0.0
2017-Oct-05 00:29S 29°53' E 031°02'0 0.0
2017-Oct-05 00:00S 29°53' E 031°02'0 0.0
2017-Oct-04 23:30S 29°53' E 031°02'0 0.0
2017-Oct-04 23:00S 29°53' E 031°02'0 0.0
2017-Oct-04 22:30S 29°53' E 031°02'0 0.0
2017-Oct-04 22:00S 29°53' E 031°02'0 0.0
2017-Oct-04 21:30S 29°53' E 031°02'0 0.0
2017-Oct-04 21:00S 29°53' E 031°02'0 0.0
2017-Oct-04 20:27S 29°53' E 031°02'0 0.0
2017-Oct-04 20:00S 29°53' E 031°02'0 0.0
2017-Oct-04 19:30S 29°53' E 031°02'0 0.0
2017-Oct-04 19:00S 29°53' E 031°02'0 0.0
2017-Oct-04 18:30S 29°53' E 031°02'0 0.0
2017-Oct-04 18:00S 29°53' E 031°02'0 0.0
2017-Oct-04 17:30S 29°53' E 031°02'0 0.0
2017-Oct-04 17:00S 29°53' E 031°02'0 0.0
2017-Oct-04 16:30S 29°53' E 031°02'0 0.0
2017-Oct-04 16:00S 29°53' E 031°02'0 0.0
2017-Oct-04 15:30S 29°53' E 031°02'0 0.0
2017-Oct-04 15:00S 29°53' E 031°02'0 0.0
2017-Oct-04 14:30S 29°53' E 031°02'0 0.0
2017-Oct-04 14:00S 29°53' E 031°02'0 0.0
2017-Oct-04 13:30S 29°53' E 031°02'0 0.0
2017-Oct-04 13:00S 29°53' E 031°02'0 0.0
2017-Oct-04 12:30S 29°53' E 031°02'0 0.0
2017-Oct-04 12:00S 29°53' E 031°02'0 0.0
2017-Oct-04 11:27S 29°53' E 031°02'0 0.0
2017-Oct-04 11:00S 29°53' E 031°02'0 0.0
2017-Oct-04 10:30S 29°53' E 031°02'0 0.0
2017-Oct-04 10:00S 29°53' E 031°02'0 0.0
2017-Oct-04 09:30S 29°53' E 031°02'0 0.0
2017-Oct-04 08:57S 29°53' E 031°02'0 0.0
2017-Oct-04 08:27S 29°53' E 031°02'0 0.0
2017-Oct-04 07:57S 29°53' E 031°02'0 0.0
2017-Oct-04 07:30S 29°53' E 031°02'0 0.0
2017-Oct-04 07:00S 29°53' E 031°02'0 0.0
2017-Oct-04 06:30S 29°53' E 031°02'0 0.0
2017-Oct-04 06:00S 29°53' E 031°02'0 0.0
2017-Oct-04 05:30S 29°53' E 031°02'0 0.0
2017-Oct-04 05:00S 29°53' E 031°02'0 0.0
2017-Oct-04 04:30S 29°53' E 031°02'0 0.0
2017-Oct-04 04:00S 29°53' E 031°02'0 0.0
2017-Oct-04 03:30S 29°53' E 031°02'0 0.0
2017-Oct-04 03:00S 29°53' E 031°02'0 0.0
2017-Oct-04 02:30S 29°53' E 031°02'0 0.0
2017-Oct-04 01:58S 29°53' E 031°02'0 0.0
2017-Oct-04 01:28S 29°53' E 031°02'0 0.0
2017-Oct-04 00:55S 29°53' E 031°02'0 0.0
2017-Oct-04 00:28S 29°53' E 031°02'0 0.0
2017-Oct-03 23:58S 29°53' E 031°02'0 0.0
2017-Oct-03 23:28S 29°53' E 031°02'0 0.0
2017-Oct-03 22:58S 29°53' E 031°02'0 0.0
2017-Oct-03 22:28S 29°53' E 031°02'0 0.0
2017-Oct-03 21:58S 29°53' E 031°02'0 0.0
2017-Oct-03 21:28S 29°53' E 031°02'0 0.0
2017-Oct-03 20:58S 29°53' E 031°02'0 0.0
2017-Oct-03 20:28S 29°53' E 031°02'0 0.0
2017-Oct-03 19:58S 29°53' E 031°02'0 0.0
2017-Oct-03 19:28S 29°53' E 031°02'0 0.0
2017-Oct-03 18:58S 29°53' E 031°02'0 0.0
2017-Oct-03 18:28S 29°53' E 031°02'0 0.0
2017-Oct-03 17:58S 29°53' E 031°02'0 0.0
2017-Oct-03 17:28S 29°53' E 031°02'0 0.0
2017-Oct-03 16:58S 29°53' E 031°02'0 0.0
2017-Oct-03 16:28S 29°53' E 031°02'0 0.0
2017-Oct-03 15:58S 29°53' E 031°02'0 0.0
2017-Oct-03 15:28S 29°53' E 031°02'0 0.0
2017-Oct-03 14:58S 29°53' E 031°02'0 0.0
2017-Oct-03 13:58S 29°53' E 031°02'0 1.1
2017-Oct-03 13:30S 29°52' E 031°02'4 7.7
2017-Oct-03 13:00S 29°50' E 031°05'4 7.1
2017-Oct-03 12:30S 29°49' E 031°09'5 9.9
2017-Oct-03 12:00S 29°47' E 031°14'815.2
2017-Oct-03 11:30S 29°40' E 031°17'6 8.2
2017-Oct-03 10:44S 29°33' E 031°17'0 0.3
2017-Oct-03 10:26S 29°33' E 031°17'0 0.0
2017-Oct-03 10:00S 29°33' E 031°17'0 0.1
2017-Oct-03 09:28S 29°33' E 031°17'0 0.1
2017-Oct-03 08:58S 29°33' E 031°17'0 0.0
2017-Oct-03 08:28S 29°33' E 031°17'0 0.0
2017-Oct-03 07:58S 29°33' E 031°17'0 0.1
2017-Oct-03 07:28S 29°33' E 031°17'0 0.0
2017-Oct-03 06:58S 29°33' E 031°17'0 0.0
2017-Oct-03 06:28S 29°33' E 031°17'0 0.0
2017-Oct-03 05:58S 29°33' E 031°17'0 0.0
2017-Oct-03 05:28S 29°33' E 031°17'0 0.0
2017-Oct-03 04:58S 29°33' E 031°17'0 0.0
2017-Oct-03 04:28S 29°33' E 031°17'0 0.0
2017-Oct-03 03:58S 29°33' E 031°17'0 0.0
2017-Oct-03 03:28S 29°33' E 031°17'0 0.0
2017-Oct-03 02:58S 29°33' E 031°17'0 0.0
2017-Oct-03 02:19S 29°33' E 031°17'0 0.0
2017-Oct-03 01:58S 29°33' E 031°17'0 0.0
2017-Oct-03 01:28S 29°33' E 031°17'0 0.0
2017-Oct-03 00:58S 29°34' E 031°17'0 0.0
2017-Oct-03 00:28S 29°33' E 031°17'0 0.0
2017-Oct-02 23:58S 29°33' E 031°17'0 0.0
2017-Oct-02 23:28S 29°33' E 031°17'0 0.0
2017-Oct-02 22:58S 29°33' E 031°17'0 0.0
2017-Oct-02 22:28S 29°33' E 031°17'0 0.0
2017-Oct-02 21:58S 29°33' E 031°17'0 0.0
2017-Oct-02 21:28S 29°33' E 031°17'0 0.1
2017-Oct-02 20:58S 29°33' E 031°17'0 0.1
2017-Oct-02 20:28S 29°33' E 031°17'0 0.0
2017-Oct-02 19:58S 29°33' E 031°17'0 0.0
2017-Oct-02 19:28S 29°33' E 031°17'0 0.0
2017-Oct-02 18:58S 29°33' E 031°17'0 0.0
2017-Oct-02 18:28S 29°33' E 031°17'0 0.0
2017-Oct-02 17:58S 29°33' E 031°17'0 0.0
2017-Oct-02 17:28S 29°33' E 031°17'0 0.0
2017-Oct-02 16:58S 29°33' E 031°17'0 0.1
2017-Oct-02 16:28S 29°33' E 031°17'0 0.0
2017-Oct-02 15:58S 29°33' E 031°17'0 0.0
2017-Oct-02 15:28S 29°33' E 031°17'0 0.1
2017-Oct-02 14:58S 29°33' E 031°17'0 0.0
2017-Oct-02 14:25S 29°33' E 031°17'0 0.0
2017-Oct-02 13:55S 29°33' E 031°17'0 0.0
2017-Oct-02 13:25S 29°33' E 031°17'0 0.0
2017-Oct-02 12:58S 29°33' E 031°17'0 0.0
2017-Oct-02 12:28S 29°33' E 031°17'0 0.0
2017-Oct-02 11:58S 29°33' E 031°17'0 0.0
2017-Oct-02 11:30S 29°33' E 031°17'0 0.1
2017-Oct-02 11:00S 29°33' E 031°17'0 0.0
2017-Oct-02 10:30S 29°33' E 031°17'0 0.1
2017-Oct-02 10:00S 29°33' E 031°17'0 0.1
2017-Oct-02 09:30S 29°33' E 031°17'0 0.0
2017-Oct-02 09:00S 29°33' E 031°17'0 0.1
2017-Oct-02 08:30S 29°33' E 031°17'  

Dump ship's entire track history